Vandalia, Ohio
Current Conditions -  °F | °C
As of 7:56 AM on Thursday 18 Dec 2014 (Local Time) from KDAY Reporting Station
Overcast Overcast  
Wind Chill: 27°   Ceiling: 1800
Heat Index: 27°   Visibility: 10mi
Dew Point: 19°   Wind: 3mph
Humidity: 72%   Direction: 320°NW
Pressure: 30.25"   Gusts: NA
Location:  39.89°N, 84.19°W
Report Text: KDAY 181256Z 32003KT 10SM OVC018 M03/M07 A3025 RMK AO2 SLP257 T10281072
Loading
Personal Weather Stations






























Interactive Weather Map New forecast layout! Learn more

10-Day Weather Forecast

Advertisements
Track Severe Weather on mobile